Time;durP1;ratioP1;P1;durP2;ratioP2;P2;SDS_P1;SDS_P2;PMS_P1;PMS_P2;Temp;Humidity;BMP_temperature;BMP_pressure;BME280_temperature;BME280_humidity;BME280_pressure;Samples;Min_cycle;Max_cycle;Signal;HPM_P1;HPM_P2
2023/05/02 00:02:02;;;;;;;4.15;2.25;;;;;;;;;;4952687;29;20023;-89
2023/05/02 00:04:28;;;;;;;2.72;1.70;;;;;;;;;;4952096;28;20481;-88
2023/05/02 00:06:54;;;;;;;3.53;1.75;;;;;;;;;;4950858;29;20027;-89
2023/05/02 00:09:20;;;;;;;4.07;2.42;;;;;;;;;;4951485;28;20111;-90
2023/05/02 00:11:46;;;;;;;5.97;2.20;;;;;;;;;;4944308;29;20031;-89
2023/05/02 00:14:12;;;;;;;4.05;1.90;;;;;;;;;;4949395;28;20273;-87
2023/05/02 00:16:38;;;;;;;4.05;2.28;;;;;;;;;;4944375;28;20027;-90
2023/05/02 00:19:04;;;;;;;4.32;2.08;;;;;;;;;;4952059;28;20113;-90
2023/05/02 00:21:30;;;;;;;3.15;2.10;;;;;;;;;;4935074;29;20030;-90
2023/05/02 00:23:56;;;;;;;3.55;2.28;;;;;;;;;;4945602;29;20023;-91
2023/05/02 00:26:22;;;;;;;4.65;2.30;;;;;;;;;;4949406;28;20027;-90
2023/05/02 00:28:48;;;;;;;3.10;2.10;;;;;;;;;;4950584;28;20028;-91
2023/05/02 00:31:15;;;;;;;2.80;1.67;;;;;;;;;;4934651;29;20027;-90
2023/05/02 00:33:41;;;;;;;2.67;1.55;;;;;;;;;;4953559;28;20031;-90
2023/05/02 00:36:17;;;;;;;2.45;1.85;;;;;;;;;;4949954;29;20035;-90
2023/05/02 00:38:43;;;;;;;7.38;2.05;;;;;;;;;;4950446;29;20051;-91
2023/05/02 00:41:09;;;;;;;3.17;1.83;;;;;;;;;;4948885;28;20055;-91
2023/05/02 00:43:38;;;;;;;4.25;2.15;;;;;;;;;;4949573;29;20023;-91
2023/05/02 00:46:04;;;;;;;1.67;1.20;;;;;;;;;;4950096;29;20066;-91
2023/05/02 00:48:32;;;;;;;5.35;2.10;;;;;;;;;;4927835;29;20122;-90
2023/05/02 00:50:58;;;;;;;3.35;1.77;;;;;;;;;;4951964;28;20192;-91
2023/05/02 00:53:24;;;;;;;2.45;1.80;;;;;;;;;;4933040;29;20043;-86
2023/05/02 00:55:50;;;;;;;3.33;1.90;;;;;;;;;;4948458;28;20131;-88
2023/05/02 00:58:17;;;;;;;3.83;2.20;;;;;;;;;;4941037;28;20043;-89
2023/05/02 01:01:02;;;;;;;2.80;1.73;;;;;;;;;;4933458;29;20031;-89
2023/05/02 01:03:36;;;;;;;3.33;1.63;;;;;;;;;;4950231;28;20130;-89
2023/05/02 01:06:12;;;;;;;2.00;1.55;;;;;;;;;;4950120;29;20031;-88
2023/05/02 01:08:42;;;;;;;6.57;2.05;;;;;;;;;;4950016;29;20606;-88
2023/05/02 01:11:15;;;;;;;2.75;1.85;;;;;;;;;;4950234;28;20028;-87
2023/05/02 01:13:44;;;;;;;2.80;1.75;;;;;;;;;;4950815;28;20611;-87
2023/05/02 01:16:12;;;;;;;3.33;2.35;;;;;;;;;;4949525;28;20070;-87
2023/05/02 01:18:40;;;;;;;2.97;1.80;;;;;;;;;;4933210;29;20039;-87
2023/05/02 01:21:07;;;;;;;1.50;1.40;;;;;;;;;;4930772;29;20482;-88
2023/05/02 01:23:46;;;;;;;2.63;1.90;;;;;;;;;;4934981;29;20027;-86
2023/05/02 01:26:31;;;;;;;3.30;2.10;;;;;;;;;;4949906;28;20023;-89
2023/05/02 01:28:58;;;;;;;3.38;2.13;;;;;;;;;;4947539;29;20031;-87
2023/05/02 01:31:26;;;;;;;2.65;1.90;;;;;;;;;;4948396;28;20031;-87
2023/05/02 01:33:53;;;;;;;2.53;1.67;;;;;;;;;;4948085;28;20027;-88
2023/05/02 01:36:19;;;;;;;2.13;1.55;;;;;;;;;;4949224;28;20386;-88
2023/05/02 01:38:45;;;;;;;5.40;1.63;;;;;;;;;;4948738;28;20112;-88
2023/05/02 01:41:12;;;;;;;6.03;2.53;;;;;;;;;;4932174;29;20051;-87
2023/05/02 01:43:38;;;;;;;1.95;1.40;;;;;;;;;;4948907;28;20118;-87
2023/05/02 01:46:06;;;;;;;3.92;1.88;;;;;;;;;;4944284;28;20035;-87
2023/05/02 01:48:32;;;;;;;3.05;1.80;;;;;;;;;;4943484;29;20031;-89
2023/05/02 01:50:58;;;;;;;2.25;1.63;;;;;;;;;;4935954;29;20501;-89
2023/05/02 01:53:26;;;;;;;2.25;1.27;;;;;;;;;;4949354;28;20031;-87
2023/05/02 01:55:52;;;;;;;3.50;1.73;;;;;;;;;;4947338;28;20062;-86
2023/05/02 01:58:18;;;;;;;2.05;1.70;;;;;;;;;;4947179;28;20114;-87
2023/05/02 02:00:45;;;;;;;2.80;1.60;;;;;;;;;;4949217;28;20035;-87
2023/05/02 02:03:11;;;;;;;3.25;1.90;;;;;;;;;;4949519;28;20059;-87
2023/05/02 02:05:39;;;;;;;2.08;1.50;;;;;;;;;;4948797;28;20039;-88
2023/05/02 02:08:05;;;;;;;3.80;1.98;;;;;;;;;;4949257;28;20035;-89
2023/05/02 02:10:33;;;;;;;4.10;1.77;;;;;;;;;;4948341;29;20027;-88
2023/05/02 02:13:07;;;;;;;2.80;1.83;;;;;;;;;;4949211;28;20034;-89
2023/05/02 02:15:37;;;;;;;2.80;1.80;;;;;;;;;;4954166;28;20035;-88
2023/05/02 02:18:10;;;;;;;3.63;2.10;;;;;;;;;;4950323;29;20386;-88
2023/05/02 02:20:36;;;;;;;1.55;1.13;;;;;;;;;;4953209;28;20028;-89
2023/05/02 02:23:04;;;;;;;1.60;1.50;;;;;;;;;;4954264;29;20553;-89
2023/05/02 02:25:30;;;;;;;5.32;1.70;;;;;;;;;;4952813;28;20039;-88
2023/05/02 02:27:56;;;;;;;2.92;1.90;;;;;;;;;;4953544;28;20035;-88
2023/05/02 02:30:22;;;;;;;3.22;2.22;;;;;;;;;;4947682;28;20038;-87
2023/05/02 02:32:49;;;;;;;2.00;1.42;;;;;;;;;;4951630;28;20039;-88
2023/05/02 02:35:15;;;;;;;3.50;1.35;;;;;;;;;;4950759;28;20066;-83
2023/05/02 02:37:44;;;;;;;2.78;1.50;;;;;;;;;;4951381;28;20031;-86
2023/05/02 02:40:18;;;;;;;2.80;1.70;;;;;;;;;;4954538;28;20027;-88
2023/05/02 02:42:44;;;;;;;5.00;1.73;;;;;;;;;;4946739;29;20551;-89
2023/05/02 02:45:37;;;;;;;2.38;1.67;;;;;;;;;;4948709;28;20031;-87
2023/05/02 02:48:11;;;;;;;2.38;1.70;;;;;;;;;;4944691;29;20051;-89
2023/05/02 02:50:46;;;;;;;3.47;2.10;;;;;;;;;;4952038;28;20043;-87
2023/05/02 02:53:17;;;;;;;2.63;2.05;;;;;;;;;;4952678;28;20032;-86
2023/05/02 02:55:55;;;;;;;2.58;1.52;;;;;;;;;;4952359;28;20482;-86
2023/05/02 02:58:28;;;;;;;3.80;1.58;;;;;;;;;;4952221;29;20079;-88
2023/05/02 03:00:54;;;;;;;2.03;1.65;;;;;;;;;;4951383;28;20035;-86
2023/05/02 03:03:23;;;;;;;2.00;1.48;;;;;;;;;;4950951;28;20040;-86
2023/05/02 03:05:50;;;;;;;2.63;1.88;;;;;;;;;;4947667;28;20043;-85
2023/05/02 03:08:16;;;;;;;2.83;1.45;;;;;;;;;;4945176;29;20134;-86
2023/05/02 03:10:42;;;;;;;2.65;1.48;;;;;;;;;;4949272;28;20329;-87
2023/05/02 03:13:08;;;;;;;3.25;1.98;;;;;;;;;;4944992;28;20027;-86
2023/05/02 03:15:58;;;;;;;1.67;1.38;;;;;;;;;;4947899;29;20035;-86
2023/05/02 03:18:24;;;;;;;3.80;1.60;;;;;;;;;;4949033;28;20082;-85
2023/05/02 03:20:50;;;;;;;1.20;1.10;;;;;;;;;;4951525;28;20131;-86
2023/05/02 03:23:16;;;;;;;2.20;1.42;;;;;;;;;;4951172;28;20542;-87
2023/05/02 03:25:42;;;;;;;1.70;1.30;;;;;;;;;;4941345;29;20043;-86
2023/05/02 03:28:08;;;;;;;1.95;1.67;;;;;;;;;;4948630;29;20479;-86
2023/05/02 03:30:34;;;;;;;2.13;1.48;;;;;;;;;;4950188;28;20058;-84
2023/05/02 03:33:01;;;;;;;1.58;1.23;;;;;;;;;;4950404;28;20024;-77
2023/05/02 03:35:27;;;;;;;4.78;1.30;;;;;;;;;;4950973;28;20367;-78
2023/05/02 03:37:53;;;;;;;1.38;1.27;;;;;;;;;;4947425;28;20026;-89
2023/05/02 03:40:20;;;;;;;1.85;1.52;;;;;;;;;;4947502;28;20501;-85
2023/05/02 03:42:46;;;;;;;2.95;1.60;;;;;;;;;;4946885;28;20031;-87
2023/05/02 03:45:12;;;;;;;2.22;1.80;;;;;;;;;;4932088;29;20035;-79
2023/05/02 03:47:38;;;;;;;1.30;0.98;;;;;;;;;;4944684;28;20410;-78
2023/05/02 03:50:04;;;;;;;2.03;1.35;;;;;;;;;;4939635;28;20098;-79
2023/05/02 03:52:30;;;;;;;2.33;1.50;;;;;;;;;;4944755;29;20059;-79
2023/05/02 03:54:56;;;;;;;1.92;1.48;;;;;;;;;;4943848;28;20023;-78
2023/05/02 03:57:22;;;;;;;1.23;1.13;;;;;;;;;;4946502;28;20498;-78
2023/05/02 03:59:48;;;;;;;1.63;1.33;;;;;;;;;;4947601;29;20032;-79
2023/05/02 04:02:15;;;;;;;1.63;1.38;;;;;;;;;;4948844;28;21195;-78
2023/05/02 04:04:41;;;;;;;2.17;1.35;;;;;;;;;;4946960;28;20059;-78
2023/05/02 04:07:17;;;;;;;2.15;1.20;;;;;;;;;;4946763;28;20027;-79
2023/05/02 04:09:43;;;;;;;2.35;1.65;;;;;;;;;;4948943;28;20031;-79
2023/05/02 04:12:09;;;;;;;1.45;1.17;;;;;;;;;;4947054;28;20019;-79
2023/05/02 04:14:35;;;;;;;1.15;1.05;;;;;;;;;;4947089;28;20030;-80
2023/05/02 04:17:01;;;;;;;2.55;1.42;;;;;;;;;;4948081;28;20027;-79
2023/05/02 04:19:27;;;;;;;1.48;1.38;;;;;;;;;;4950874;28;20390;-79
2023/05/02 04:21:52;;;;;;;2.10;1.42;;;;;;;;;;4950824;28;20467;-80
2023/05/02 04:24:18;;;;;;;2.05;1.20;;;;;;;;;;4948177;28;20015;-79
2023/05/02 04:26:46;;;;;;;2.55;1.67;;;;;;;;;;4956172;28;20079;-80
2023/05/02 04:29:12;;;;;;;5.82;1.60;;;;;;;;;;4948290;28;20034;-80
2023/05/02 04:31:39;;;;;;;1.55;1.00;;;;;;;;;;4955199;28;20094;-78
2023/05/02 04:34:05;;;;;;;2.03;1.50;;;;;;;;;;4949400;28;20019;-80
2023/05/02 04:36:32;;;;;;;1.58;1.35;;;;;;;;;;4952128;28;20074;-79
2023/05/02 04:38:59;;;;;;;1.15;1.05;;;;;;;;;;4957405;28;20039;-79
2023/05/02 04:41:25;;;;;;;2.25;1.50;;;;;;;;;;4940077;28;20027;-79
2023/05/02 04:43:51;;;;;;;3.03;1.38;;;;;;;;;;4946859;28;20114;-79
2023/05/02 04:46:17;;;;;;;2.42;1.50;;;;;;;;;;4948592;28;20032;-80
2023/05/02 04:48:43;;;;;;;2.28;1.55;;;;;;;;;;4940778;28;20063;-80
2023/05/02 04:51:09;;;;;;;2.08;1.40;;;;;;;;;;4941559;28;20475;-80
2023/05/02 04:53:36;;;;;;;1.80;1.10;;;;;;;;;;4949706;28;20192;-79
2023/05/02 04:56:01;;;;;;;1.98;1.25;;;;;;;;;;4942506;28;20154;-80
2023/05/02 04:58:28;;;;;;;1.98;1.30;;;;;;;;;;4952600;28;20482;-79
2023/05/02 05:00:54;;;;;;;1.95;1.27;;;;;;;;;;4942835;28;20035;-79
2023/05/02 05:03:20;;;;;;;1.30;1.02;;;;;;;;;;4945430;28;20053;-78
2023/05/02 05:05:46;;;;;;;1.38;1.17;;;;;;;;;;4950486;28;20137;-79
2023/05/02 05:08:12;;;;;;;3.03;1.40;;;;;;;;;;4940991;28;20066;-79
2023/05/02 05:10:41;;;;;;;1.75;1.30;;;;;;;;;;4936863;28;20490;-78
2023/05/02 05:13:07;;;;;;;1.33;0.95;;;;;;;;;;4947602;28;20023;-79
2023/05/02 05:15:33;;;;;;;2.05;1.30;;;;;;;;;;4945449;28;20023;-78
2023/05/02 05:17:59;;;;;;;1.67;1.20;;;;;;;;;;4941314;28;20030;-78
2023/05/02 05:20:25;;;;;;;1.27;1.10;;;;;;;;;;4943254;28;20028;-78
2023/05/02 05:22:51;;;;;;;1.00;0.90;;;;;;;;;;4943874;28;20032;-79
2023/05/02 05:25:17;;;;;;;1.88;1.08;;;;;;;;;;4932748;28;20031;-78
2023/05/02 05:27:43;;;;;;;1.83;1.23;;;;;;;;;;4943946;28;20042;-77
2023/05/02 05:30:09;;;;;;;1.98;1.17;;;;;;;;;;4938647;28;20023;-78
2023/05/02 05:32:35;;;;;;;2.63;1.10;;;;;;;;;;4935634;28;20028;-78
2023/05/02 05:35:01;;;;;;;1.58;1.20;;;;;;;;;;4941565;28;20652;-77
2023/05/02 05:37:27;;;;;;;1.52;0.98;;;;;;;;;;4941488;28;20043;-78
2023/05/02 05:39:53;;;;;;;1.30;1.10;;;;;;;;;;4944970;28;20027;-77
2023/05/02 05:42:19;;;;;;;2.05;0.90;;;;;;;;;;4939675;28;20023;-78
2023/05/02 05:44:45;;;;;;;1.33;0.95;;;;;;;;;;4938858;28;20097;-78
2023/05/02 05:47:11;;;;;;;1.23;1.13;;;;;;;;;;4941749;28;20019;-78
2023/05/02 05:49:37;;;;;;;1.38;1.00;;;;;;;;;;4946270;28;20490;-78
2023/05/02 05:52:03;;;;;;;1.23;1.13;;;;;;;;;;4945832;28;20039;-78
2023/05/02 05:54:29;;;;;;;1.83;1.13;;;;;;;;;;4944846;28;20032;-77
2023/05/02 05:56:55;;;;;;;2.50;1.30;;;;;;;;;;4943317;28;20124;-78
2023/05/02 05:59:21;;;;;;;1.20;1.02;;;;;;;;;;4948163;28;20109;-78
2023/05/02 06:01:47;;;;;;;2.10;1.10;;;;;;;;;;4948563;28;20035;-77
2023/05/02 06:04:13;;;;;;;1.80;1.10;;;;;;;;;;4933436;28;20040;-77
2023/05/02 06:06:39;;;;;;;5.00;1.00;;;;;;;;;;4930930;28;20039;-78
2023/05/02 06:09:05;;;;;;;1.90;0.80;;;;;;;;;;4932201;28;20109;-78
2023/05/02 06:11:31;;;;;;;0.80;0.80;;;;;;;;;;4932829;28;20202;-77
2023/05/02 06:13:57;;;;;;;1.25;0.90;;;;;;;;;;4928788;28;20038;-76
2023/05/02 06:16:23;;;;;;;2.00;1.20;;;;;;;;;;4931173;28;20024;-76
2023/05/02 06:18:51;;;;;;;1.75;1.00;;;;;;;;;;4925242;29;20032;-76
2023/05/02 06:21:17;;;;;;;1.30;0.88;;;;;;;;;;4933397;28;20035;-77
2023/05/02 06:23:44;;;;;;;2.17;1.50;;;;;;;;;;4925924;28;20032;-77
2023/05/02 06:26:10;;;;;;;1.88;1.25;;;;;;;;;;4931240;28;20034;-77
2023/05/02 06:28:36;;;;;;;1.83;1.10;;;;;;;;;;4937162;28;20058;-77
2023/05/02 06:31:04;;;;;;;0.77;0.77;;;;;;;;;;4938785;28;20026;-77
2023/05/02 06:33:30;;;;;;;2.38;1.30;;;;;;;;;;4924077;28;20035;-77
2023/05/02 06:35:59;;;;;;;1.40;1.10;;;;;;;;;;4931921;28;20044;-77
2023/05/02 06:38:25;;;;;;;0.90;0.77;;;;;;;;;;4926170;28;20032;-76
2023/05/02 06:40:51;;;;;;;1.55;0.98;;;;;;;;;;4940780;28;20043;-77
2023/05/02 06:43:20;;;;;;;1.73;1.35;;;;;;;;;;4940319;28;20031;-77
2023/05/02 06:45:49;;;;;;;1.60;0.77;;;;;;;;;;4930222;28;20050;-77
2023/05/02 06:48:15;;;;;;;2.13;1.10;;;;;;;;;;4925311;28;20035;-77
2023/05/02 06:50:41;;;;;;;1.85;1.10;;;;;;;;;;4932645;28;20035;-77
2023/05/02 06:53:10;;;;;;;2.20;1.45;;;;;;;;;;4926606;28;20028;-77
2023/05/02 06:55:36;;;;;;;0.85;0.85;;;;;;;;;;4940941;28;20081;-77
2023/05/02 06:58:02;;;;;;;1.48;1.00;;;;;;;;;;4930296;29;20035;-77
2023/05/02 07:00:28;;;;;;;1.75;1.23;;;;;;;;;;4940619;28;20086;-77
2023/05/02 07:02:55;;;;;;;1.33;0.85;;;;;;;;;;4954402;28;20023;-77
2023/05/02 07:05:21;;;;;;;1.35;0.70;;;;;;;;;;4943994;28;20394;-77
2023/05/02 07:07:47;;;;;;;1.05;0.90;;;;;;;;;;4947942;28;20032;-77
2023/05/02 07:10:13;;;;;;;1.73;1.00;;;;;;;;;;4949875;28;20043;-78
2023/05/02 07:12:39;;;;;;;1.20;0.98;;;;;;;;;;4949376;28;20115;-77
2023/05/02 07:15:05;;;;;;;1.10;0.93;;;;;;;;;;4951425;28;20446;-77
2023/05/02 07:17:31;;;;;;;1.42;0.80;;;;;;;;;;4954748;28;20035;-76
2023/05/02 07:19:57;;;;;;;1.75;1.20;;;;;;;;;;4946378;28;20489;-77
2023/05/02 07:22:23;;;;;;;1.13;0.82;;;;;;;;;;4947516;28;20055;-76
2023/05/02 07:24:57;;;;;;;1.00;0.90;;;;;;;;;;4948330;28;20034;-78
2023/05/02 07:27:23;;;;;;;1.00;0.75;;;;;;;;;;4950817;28;20030;-78
2023/05/02 07:29:50;;;;;;;0.70;0.70;;;;;;;;;;4939883;28;20110;-77
2023/05/02 07:32:16;;;;;;;1.10;1.00;;;;;;;;;;4944974;28;21476;-77
2023/05/02 07:34:42;;;;;;;1.52;0.93;;;;;;;;;;4925595;29;20035;-79
2023/05/02 07:37:08;;;;;;;2.63;1.00;;;;;;;;;;4947722;28;20485;-77
2023/05/02 07:39:34;;;;;;;0.93;0.93;;;;;;;;;;4942354;28;20031;-77
2023/05/02 07:42:02;;;;;;;0.82;0.80;;;;;;;;;;4948077;28;20105;-77
2023/05/02 07:44:28;;;;;;;1.95;1.00;;;;;;;;;;4955604;28;20034;-78
2023/05/02 07:46:54;;;;;;;2.38;1.10;;;;;;;;;;4940341;28;20031;-78
2023/05/02 07:49:20;;;;;;;2.05;0.90;;;;;;;;;;4949327;28;20042;-77
2023/05/02 07:51:46;;;;;;;1.40;1.23;;;;;;;;;;4943331;28;20050;-77
2023/05/02 07:54:16;;;;;;;0.77;0.70;;;;;;;;;;4935259;28;20552;-77
2023/05/02 07:56:43;;;;;;;1.08;0.93;;;;;;;;;;4941793;28;20035;-77
2023/05/02 07:59:09;;;;;;;1.02;0.88;;;;;;;;;;4951741;28;20478;-78
2023/05/02 08:01:35;;;;;;;1.52;0.93;;;;;;;;;;4948233;28;20019;-78
2023/05/02 08:04:01;;;;;;;1.33;0.90;;;;;;;;;;4937993;28;20058;-77
2023/05/02 08:06:31;;;;;;;1.50;0.80;;;;;;;;;;4943509;28;20178;-77
2023/05/02 08:08:57;;;;;;;1.25;1.02;;;;;;;;;;4957542;28;20026;-78
2023/05/02 08:11:24;;;;;;;2.15;0.90;;;;;;;;;;4943227;28;20035;-78
2023/05/02 08:13:50;;;;;;;0.75;0.73;;;;;;;;;;4945883;28;20039;-80
2023/05/02 08:16:16;;;;;;;1.90;1.00;;;;;;;;;;4948225;28;20043;-79
2023/05/02 08:18:42;;;;;;;1.33;0.88;;;;;;;;;;4940878;28;20039;-77
2023/05/02 08:21:08;;;;;;;2.47;1.58;;;;;;;;;;4940474;28;20054;-78
2023/05/02 08:23:34;;;;;;;1.10;1.00;;;;;;;;;;4944600;28;20035;-78
2023/05/02 08:26:00;;;;;;;1.55;0.75;;;;;;;;;;4941381;28;20065;-78
2023/05/02 08:28:26;;;;;;;1.27;0.60;;;;;;;;;;4942220;28;20471;-78
2023/05/02 08:30:52;;;;;;;1.20;0.65;;;;;;;;;;4945557;28;20529;-79
2023/05/02 08:33:18;;;;;;;1.00;0.75;;;;;;;;;;4946383;28;20177;-78
2023/05/02 08:35:44;;;;;;;1.80;0.75;;;;;;;;;;4949063;28;20038;-77
2023/05/02 08:38:10;;;;;;;1.17;0.90;;;;;;;;;;4939247;28;20030;-79
2023/05/02 08:40:36;;;;;;;4.88;1.02;;;;;;;;;;4946641;28;20031;-79
2023/05/02 08:43:03;;;;;;;0.73;0.60;;;;;;;;;;4945386;28;20089;-80
2023/05/02 08:45:31;;;;;;;2.25;0.93;;;;;;;;;;4942247;28;20083;-79
2023/05/02 08:47:58;;;;;;;1.77;1.27;;;;;;;;;;4944171;28;20143;-83
2023/05/02 08:50:24;;;;;;;1.92;0.98;;;;;;;;;;4944179;28;20031;-80
2023/05/02 08:52:51;;;;;;;0.77;0.63;;;;;;;;;;4946471;28;20037;-79
2023/05/02 08:55:17;;;;;;;1.27;0.90;;;;;;;;;;4948467;28;20511;-80
2023/05/02 08:57:43;;;;;;;1.42;1.00;;;;;;;;;;4939655;28;20095;-80
2023/05/02 09:00:10;;;;;;;1.02;0.88;;;;;;;;;;4949733;28;20030;-80
2023/05/02 09:02:36;;;;;;;1.33;0.70;;;;;;;;;;4942045;28;20118;-80
2023/05/02 09:05:06;;;;;;;1.33;0.77;;;;;;;;;;4947577;28;20129;-81
2023/05/02 09:07:43;;;;;;;2.25;0.52;;;;;;;;;;4938141;28;20038;-80
2023/05/02 09:10:21;;;;;;;0.85;0.77;;;;;;;;;;4941469;28;20038;-83
2023/05/02 09:12:47;;;;;;;1.77;0.70;;;;;;;;;;4938128;28;20034;-77
2023/05/02 09:15:19;;;;;;;1.27;0.77;;;;;;;;;;4944441;28;20027;-75
2023/05/02 09:17:48;;;;;;;2.28;0.90;;;;;;;;;;4940557;28;20062;-82
2023/05/02 09:20:15;;;;;;;1.27;0.88;;;;;;;;;;4943584;28;20137;-82
2023/05/02 09:22:48;;;;;;;1.35;0.93;;;;;;;;;;4945973;28;20050;-77
2023/05/02 09:25:15;;;;;;;4.25;0.70;;;;;;;;;;4949109;28;20126;-82
2023/05/02 09:27:51;;;;;;;0.65;0.65;;;;;;;;;;4941144;28;20556;-80
2023/05/02 09:30:18;;;;;;;1.05;0.70;;;;;;;;;;4943500;28;20026;-79
2023/05/02 09:32:45;;;;;;;0.82;0.80;;;;;;;;;;4934852;28;20035;-81
2023/05/02 09:35:12;;;;;;;1.23;0.90;;;;;;;;;;4941006;28;20090;-82
2023/05/02 09:37:38;;;;;;;0.88;0.80;;;;;;;;;;4945366;28;20055;-81
2023/05/02 09:40:05;;;;;;;1.95;0.68;;;;;;;;;;4934338;28;20042;-82
2023/05/02 09:42:31;;;;;;;1.08;0.85;;;;;;;;;;4940321;28;20438;-81
2023/05/02 09:44:57;;;;;;;1.30;0.82;;;;;;;;;;4945894;28;20042;-82
2023/05/02 09:47:26;;;;;;;0.88;0.70;;;;;;;;;;4936663;28;20024;-78
2023/05/02 09:49:52;;;;;;;0.82;0.70;;;;;;;;;;4935885;28;20058;-77
2023/05/02 09:52:20;;;;;;;1.70;0.57;;;;;;;;;;4938429;28;20027;-78
2023/05/02 09:54:49;;;;;;;0.60;0.60;;;;;;;;;;4941393;28;20038;-79
2023/05/02 09:57:15;;;;;;;0.77;0.77;;;;;;;;;;4935988;28;20031;-79
2023/05/02 09:59:41;;;;;;;0.60;0.60;;;;;;;;;;4941257;28;20028;-80
2023/05/02 10:02:10;;;;;;;0.60;0.60;;;;;;;;;;4940805;28;21506;-80
2023/05/02 10:04:36;;;;;;;0.85;0.80;;;;;;;;;;4938010;28;20047;-79
2023/05/02 10:07:05;;;;;;;0.55;0.50;;;;;;;;;;4942365;28;20042;-79
2023/05/02 10:09:33;;;;;;;3.63;1.20;;;;;;;;;;4943633;28;20031;-80
2023/05/02 10:12:05;;;;;;;0.85;0.80;;;;;;;;;;4921518;28;20057;-80
2023/05/02 10:14:37;;;;;;;0.70;0.60;;;;;;;;;;4949412;28;20119;-79
2023/05/02 10:17:18;;;;;;;1.50;0.73;;;;;;;;;;4943689;28;20037;-80
2023/05/02 10:19:53;;;;;;;0.97;0.67;;;;;;;;;;4940362;28;20028;-81
2023/05/02 10:22:20;;;;;;;0.80;0.50;;;;;;;;;;4944341;28;20027;-80
2023/05/02 10:24:48;;;;;;;0.60;0.60;;;;;;;;;;4935467;28;20028;-80
2023/05/02 10:27:14;;;;;;;0.85;0.57;;;;;;;;;;4942758;28;20026;-80
2023/05/02 10:29:41;;;;;;;0.70;0.60;;;;;;;;;;4941472;28;20058;-79
2023/05/02 10:32:08;;;;;;;0.70;0.60;;;;;;;;;;4936171;28;20036;-80
2023/05/02 10:34:36;;;;;;;0.50;0.50;;;;;;;;;;4949227;28;20092;-81
2023/05/02 10:37:02;;;;;;;0.70;0.70;;;;;;;;;;4956477;28;20470;-80
2023/05/02 10:39:29;;;;;;;0.70;0.70;;;;;;;;;;4949113;28;20040;-80
2023/05/02 10:41:56;;;;;;;0.60;0.55;;;;;;;;;;4942557;28;20589;-80
2023/05/02 10:44:32;;;;;;;0.73;0.65;;;;;;;;;;4949074;28;20022;-80
2023/05/02 10:46:59;;;;;;;0.77;0.70;;;;;;;;;;4935062;28;21817;-80
2023/05/02 10:49:26;;;;;;;0.70;0.70;;;;;;;;;;4960942;28;20031;-80
2023/05/02 10:51:52;;;;;;;2.28;0.50;;;;;;;;;;4958891;28;20062;-80
2023/05/02 10:54:24;;;;;;;0.70;0.70;;;;;;;;;;4949991;28;20047;-80
2023/05/02 10:57:02;;;;;;;1.58;0.60;;;;;;;;;;4950538;28;20031;-80
2023/05/02 10:59:29;;;;;;;0.50;0.50;;;;;;;;;;4941097;28;20402;-79
2023/05/02 11:01:55;;;;;;;2.13;1.00;;;;;;;;;;4944419;28;20091;-80
2023/05/02 11:04:21;;;;;;;0.50;0.50;;;;;;;;;;4944697;28;20553;-80
2023/05/02 11:07:13;;;;;;;1.00;0.90;;;;;;;;;;4941387;28;20050;-79
2023/05/02 11:09:39;;;;;;;0.70;0.68;;;;;;;;;;4947586;28;20057;-79
2023/05/02 11:12:05;;;;;;;1.10;0.70;;;;;;;;;;4946128;28;20478;-79
2023/05/02 11:14:34;;;;;;;1.25;0.68;;;;;;;;;;4944286;28;20031;-79
2023/05/02 11:17:03;;;;;;;2.13;0.82;;;;;;;;;;4943330;28;20042;-80
2023/05/02 11:19:49;;;;;;;0.88;0.88;;;;;;;;;;4942425;29;20032;-80
2023/05/02 11:22:15;;;;;;;0.82;0.75;;;;;;;;;;4940670;28;20143;-79
2023/05/02 11:24:43;;;;;;;0.82;0.70;;;;;;;;;;4943308;28;20034;-80
2023/05/02 11:27:28;;;;;;;1.00;0.90;;;;;;;;;;4943459;28;20474;-79
2023/05/02 11:29:54;;;;;;;0.75;0.65;;;;;;;;;;4945023;28;20054;-78
2023/05/02 11:32:21;;;;;;;0.40;0.38;;;;;;;;;;4956058;28;20035;-79
2023/05/02 11:34:51;;;;;;;0.93;0.60;;;;;;;;;;4954262;28;20023;-79
2023/05/02 11:37:18;;;;;;;0.93;0.63;;;;;;;;;;4950403;28;20024;-79
2023/05/02 11:39:45;;;;;;;1.25;0.70;;;;;;;;;;4946989;28;20512;-79
2023/05/02 11:42:27;;;;;;;0.93;0.93;;;;;;;;;;4954578;28;20031;-79
2023/05/02 11:44:57;;;;;;;1.08;1.02;;;;;;;;;;4940596;28;20028;-80
2023/05/02 11:47:24;;;;;;;2.35;0.70;;;;;;;;;;4950906;28;20031;-79
2023/05/02 11:49:50;;;;;;;0.55;0.55;;;;;;;;;;4940733;28;20512;-80
2023/05/02 11:52:16;;;;;;;2.00;0.80;;;;;;;;;;4949168;28;20035;-80
2023/05/02 11:54:42;;;;;;;0.57;0.57;;;;;;;;;;4928732;28;20053;-79
2023/05/02 11:57:09;;;;;;;0.80;0.75;;;;;;;;;;4943984;28;20102;-80
2023/05/02 11:59:51;;;;;;;0.88;0.68;;;;;;;;;;4952354;28;20114;-80
2023/05/02 12:02:17;;;;;;;0.73;0.68;;;;;;;;;;4937905;28;20518;-80
2023/05/02 12:04:43;;;;;;;1.42;0.70;;;;;;;;;;4945348;28;20051;-77
2023/05/02 12:07:09;;;;;;;6.78;0.50;;;;;;;;;;4943259;28;20378;-79
2023/05/02 12:09:35;;;;;;;1.08;0.90;;;;;;;;;;4944502;28;20023;-79
2023/05/02 12:12:02;;;;;;;0.77;0.77;;;;;;;;;;4944483;28;20035;-77
2023/05/02 12:14:32;;;;;;;0.70;0.70;;;;;;;;;;4945260;28;20031;-77
2023/05/02 12:16:58;;;;;;;0.40;0.40;;;;;;;;;;4939156;28;20028;-78
2023/05/02 12:19:24;;;;;;;0.85;0.60;;;;;;;;;;4944856;28;20122;-78
2023/05/02 12:21:51;;;;;;;0.73;0.73;;;;;;;;;;4942126;28;20038;-79
2023/05/02 12:24:17;;;;;;;1.85;0.95;;;;;;;;;;4946323;28;20110;-78
2023/05/02 12:26:43;;;;;;;1.38;0.80;;;;;;;;;;4945111;28;20043;-79
2023/05/02 12:29:08;;;;;;;0.70;0.60;;;;;;;;;;4946326;28;20097;-78
2023/05/02 12:31:34;;;;;;;0.50;0.50;;;;;;;;;;4938366;28;20034;-79
2023/05/02 12:34:00;;;;;;;1.23;0.60;;;;;;;;;;4940347;28;20036;-79
2023/05/02 12:36:29;;;;;;;0.75;0.75;;;;;;;;;;4945061;29;20166;-81
2023/05/02 12:38:58;;;;;;;2.83;0.80;;;;;;;;;;4946890;28;20505;-79
2023/05/02 12:41:34;;;;;;;1.85;0.80;;;;;;;;;;4947280;28;20485;-77
2023/05/02 12:44:00;;;;;;;1.17;0.80;;;;;;;;;;4947052;28;20118;-79
2023/05/02 12:46:27;;;;;;;3.03;0.65;;;;;;;;;;4946317;28;20426;-78
2023/05/02 12:49:04;;;;;;;0.55;0.50;;;;;;;;;;4947325;28;20047;-79
2023/05/02 12:51:31;;;;;;;0.65;0.60;;;;;;;;;;4945620;28;20397;-79
2023/05/02 12:53:57;;;;;;;1.23;0.70;;;;;;;;;;4948536;28;20030;-78
2023/05/02 12:56:26;;;;;;;0.70;0.60;;;;;;;;;;4944481;28;20032;-79
2023/05/02 12:58:52;;;;;;;4.68;1.13;;;;;;;;;;4946553;28;20055;-79
2023/05/02 13:01:18;;;;;;;2.15;0.80;;;;;;;;;;4946891;28;20024;-79
2023/05/02 13:03:44;;;;;;;1.13;0.90;;;;;;;;;;4943622;28;20086;-78
2023/05/02 13:06:10;;;;;;;0.88;0.73;;;;;;;;;;4942699;29;20042;-79
2023/05/02 13:08:36;;;;;;;1.35;0.88;;;;;;;;;;4943760;28;20122;-79
2023/05/02 13:11:02;;;;;;;0.85;0.85;;;;;;;;;;4940415;28;20031;-79
2023/05/02 13:13:29;;;;;;;0.63;0.52;;;;;;;;;;4944308;28;20034;-79
2023/05/02 13:15:55;;;;;;;3.70;0.80;;;;;;;;;;4944382;28;20035;-79
2023/05/02 13:18:21;;;;;;;0.82;0.70;;;;;;;;;;4943548;28;20043;-79
2023/05/02 13:20:50;;;;;;;1.38;1.02;;;;;;;;;;4943846;28;20023;-79
2023/05/02 13:23:15;;;;;;;2.13;1.17;;;;;;;;;;4946040;29;20043;-75
2023/05/02 13:25:44;;;;;;;1.75;0.85;;;;;;;;;;4945702;28;20498;-76
2023/05/02 13:28:13;;;;;;;2.40;0.70;;;;;;;;;;4940138;28;20037;-76
2023/05/02 13:30:39;;;;;;;1.50;0.85;;;;;;;;;;4942537;28;20031;-76
2023/05/02 13:33:06;;;;;;;1.45;1.15;;;;;;;;;;4945870;28;20068;-86
2023/05/02 13:35:32;;;;;;;1.80;1.13;;;;;;;;;;4942953;28;20705;-84
2023/05/02 13:37:58;;;;;;;1.02;0.95;;;;;;;;;;4943707;29;20038;-81
2023/05/02 13:40:24;;;;;;;3.05;0.95;;;;;;;;;;4946652;28;20643;-85
2023/05/02 13:42:50;;;;;;;1.08;0.80;;;;;;;;;;4945022;28;20046;-83
2023/05/02 13:45:16;;;;;;;0.57;0.57;;;;;;;;;;4945861;28;20031;-81
2023/05/02 13:47:42;;;;;;;6.80;1.05;;;;;;;;;;4944730;28;20114;-78
2023/05/02 13:50:08;;;;;;;1.75;0.98;;;;;;;;;;4945722;28;20074;-82
2023/05/02 13:52:34;;;;;;;4.35;0.90;;;;;;;;;;4947730;29;20027;-90
2023/05/02 13:55:00;;;;;;;1.88;0.77;;;;;;;;;;4947153;28;20114;-86
2023/05/02 13:57:26;;;;;;;1.10;1.02;;;;;;;;;;4947707;29;20027;-83
2023/05/02 13:59:52;;;;;;;3.15;0.88;;;;;;;;;;4944910;28;20042;-83
2023/05/02 14:02:18;;;;;;;1.85;1.00;;;;;;;;;;4945360;28;20498;-85
2023/05/02 14:04:44;;;;;;;1.33;0.80;;;;;;;;;;4945029;28;20050;-85
2023/05/02 14:07:10;;;;;;;1.55;0.80;;;;;;;;;;4947368;28;20110;-82
2023/05/02 14:09:36;;;;;;;1.98;0.90;;;;;;;;;;4947165;28;20042;-85
2023/05/02 14:12:02;;;;;;;1.40;1.02;;;;;;;;;;4948582;28;20039;-77
2023/05/02 14:14:28;;;;;;;1.30;0.88;;;;;;;;;;4949408;28;20077;-84
2023/05/02 14:16:54;;;;;;;0.65;0.60;;;;;;;;;;4950353;28;20046;-78
2023/05/02 14:19:23;;;;;;;1.25;0.75;;;;;;;;;;4950643;28;20059;-79
2023/05/02 14:21:50;;;;;;;1.20;1.13;;;;;;;;;;4950361;28;20094;-78
2023/05/02 14:24:18;;;;;;;2.80;0.90;;;;;;;;;;4949903;28;20474;-82
2023/05/02 14:26:44;;;;;;;1.10;0.77;;;;;;;;;;4947682;28;20042;-84
2023/05/02 14:29:10;;;;;;;1.08;0.68;;;;;;;;;;4945200;29;20020;-82
2023/05/02 14:31:36;;;;;;;2.03;0.70;;;;;;;;;;4949360;28;20042;-82
2023/05/02 14:34:02;;;;;;;2.03;0.95;;;;;;;;;;4950343;28;20027;-84
2023/05/02 14:36:28;;;;;;;0.70;0.70;;;;;;;;;;4952072;28;20025;-84
2023/05/02 14:38:54;;;;;;;0.63;0.60;;;;;;;;;;4950580;28;20035;-79
2023/05/02 14:41:20;;;;;;;0.70;0.70;;;;;;;;;;4950350;28;20035;-83
2023/05/02 14:43:46;;;;;;;0.70;0.70;;;;;;;;;;4951385;28;20086;-86
2023/05/02 14:46:12;;;;;;;2.63;1.27;;;;;;;;;;4950370;28;20517;-84